sensor_id;sensor_type;location;lat;lon;timestamp;pressure;altitude;pressure_sealevel;temperature;humidity
18765;BME280;9511;54.242;12.448;2023-09-19T03:04:25;100150.69;;;16.84;88.56
18765;BME280;9511;54.242;12.448;2023-09-19T03:06:53;100154.25;;;16.83;88.30
18765;BME280;9511;54.242;12.448;2023-09-19T03:09:25;100157.84;;;16.79;88.52
18765;BME280;9511;54.242;12.448;2023-09-19T03:11:52;100165.00;;;16.77;88.36
18765;BME280;9511;54.242;12.448;2023-09-19T03:14:20;100164.13;;;16.75;88.52
18765;BME280;9511;54.242;12.448;2023-09-19T03:16:49;100155.25;;;16.66;89.28
18765;BME280;9511;54.242;12.448;2023-09-19T03:19:18;100176.69;;;16.63;89.42
18765;BME280;9511;54.242;12.448;2023-09-19T03:21:48;100168.69;;;16.59;89.54
18765;BME280;9511;54.242;12.448;2023-09-19T03:24:16;100166.91;;;16.56;90.06
18765;BME280;9511;54.242;12.448;2023-09-19T03:26:43;100174.03;;;16.57;90.10
18765;BME280;9511;54.242;12.448;2023-09-19T03:29:11;100166.09;;;16.50;90.24
18765;BME280;9511;54.242;12.448;2023-09-19T03:31:41;100174.13;;;16.45;90.26
18765;BME280;9511;54.242;12.448;2023-09-19T03:34:08;100186.66;;;16.41;90.78
18765;BME280;9511;54.242;12.448;2023-09-19T03:36:36;100169.78;;;16.33;90.85
18765;BME280;9511;54.242;12.448;2023-09-19T03:39:04;100176.94;;;16.30;91.23
18765;BME280;9511;54.242;12.448;2023-09-19T03:41:32;100185.88;;;16.24;91.82
18765;BME280;9511;54.242;12.448;2023-09-19T03:44:02;100179.66;;;16.20;91.65
18765;BME280;9511;54.242;12.448;2023-09-19T03:46:31;100175.25;;;16.15;92.21
18765;BME280;9511;54.242;12.448;2023-09-19T03:48:59;100179.72;;;16.11;92.23
18765;BME280;9511;54.242;12.448;2023-09-19T03:51:26;100182.44;;;16.07;92.68
18765;BME280;9511;54.242;12.448;2023-09-19T03:53:54;100192.25;;;16.06;92.78
18765;BME280;9511;54.242;12.448;2023-09-19T03:56:23;100184.25;;;16.03;93.09
18765;BME280;9511;54.242;12.448;2023-09-19T03:58:51;100191.34;;;16.00;93.43
18765;BME280;9511;54.242;12.448;2023-09-19T04:01:18;100199.38;;;15.98;93.46
18765;BME280;9511;54.242;12.448;2023-09-19T04:03:45;100194.03;;;16.00;93.98
18765;BME280;9511;54.242;12.448;2023-09-19T04:06:13;100187.81;;;15.98;93.86
18765;BME280;9511;54.242;12.448;2023-09-19T04:08:41;100195.84;;;15.93;94.02
18765;BME280;9511;54.242;12.448;2023-09-19T04:11:09;100187.00;;;15.91;94.42
18765;BME280;9511;54.242;12.448;2023-09-19T04:13:37;100193.25;;;15.85;94.66
18765;BME280;9511;54.242;12.448;2023-09-19T04:16:05;100191.50;;;15.83;94.62
18765;BME280;9511;54.242;12.448;2023-09-19T04:18:32;100195.97;;;15.78;95.10
18765;BME280;9511;54.242;12.448;2023-09-19T04:21:04;100202.22;;;15.72;95.31
18765;BME280;9511;54.242;12.448;2023-09-19T04:23:32;100191.56;;;15.68;95.41
18765;BME280;9511;54.242;12.448;2023-09-19T04:25:59;100199.56;;;15.64;95.60
18765;BME280;9511;54.242;12.448;2023-09-19T04:28:26;100204.88;;;15.61;95.62
18765;BME280;9511;54.242;12.448;2023-09-19T04:30:56;100194.25;;;15.60;95.60
18765;BME280;9511;54.242;12.448;2023-09-19T04:33:24;100202.25;;;15.52;95.73
18765;BME280;9511;54.242;12.448;2023-09-19T04:35:53;100203.16;;;15.50;96.19
18765;BME280;9511;54.242;12.448;2023-09-19T04:38:21;100205.81;;;15.51;96.11
18765;BME280;9511;54.242;12.448;2023-09-19T04:40:48;100205.81;;;15.51;95.80
18765;BME280;9511;54.242;12.448;2023-09-19T04:43:16;100208.50;;;15.47;95.66
18765;BME280;9511;54.242;12.448;2023-09-19T04:45:43;100212.03;;;15.50;95.55
18765;BME280;9511;54.242;12.448;2023-09-19T04:48:12;100220.06;;;15.49;94.96
18765;BME280;9511;54.242;12.448;2023-09-19T04:50:42;100218.25;;;15.48;95.11
18765;BME280;9511;54.242;12.448;2023-09-19T04:53:10;100222.72;;;15.44;94.93
18765;BME280;9511;54.242;12.448;2023-09-19T04:55:38;100221.81;;;15.45;95.27
18765;BME280;9511;54.242;12.448;2023-09-19T04:58:06;100220.06;;;15.44;95.19
18765;BME280;9511;54.242;12.448;2023-09-19T05:00:33;100212.97;;;15.35;95.09
18765;BME280;9511;54.242;12.448;2023-09-19T05:03:01;100212.97;;;15.37;95.39
18765;BME280;9511;54.242;12.448;2023-09-19T05:05:31;100216.50;;;15.36;95.51
18765;BME280;9511;54.242;12.448;2023-09-19T05:08:01;100219.19;;;15.30;95.66
18765;BME280;9511;54.242;12.448;2023-09-19T05:10:31;100228.09;;;15.32;95.91
18765;BME280;9511;54.242;12.448;2023-09-19T05:12:58;100227.19;;;15.30;95.78
18765;BME280;9511;54.242;12.448;2023-09-19T05:15:27;100228.09;;;15.29;95.67
18765;BME280;9511;54.242;12.448;2023-09-19T05:17:54;100239.66;;;15.28;95.57
18765;BME280;9511;54.242;12.448;2023-09-19T05:20:22;100244.09;;;15.29;95.81
18765;BME280;9511;54.242;12.448;2023-09-19T05:23:00;100243.19;;;15.30;95.80
18765;BME280;9511;54.242;12.448;2023-09-19T05:25:35;100254.72;;;15.36;95.41
18765;BME280;9511;54.242;12.448;2023-09-19T05:28:05;100246.72;;;15.41;95.45
18765;BME280;9511;54.242;12.448;2023-09-19T05:30:33;100257.38;;;15.46;95.27
18765;BME280;9511;54.242;12.448;2023-09-19T05:33:02;100244.91;;;15.48;95.33
18765;BME280;9511;54.242;12.448;2023-09-19T05:35:30;100251.13;;;15.50;95.16
18765;BME280;9511;54.242;12.448;2023-09-19T05:38:00;100262.66;;;15.53;94.95
18765;BME280;9511;54.242;12.448;2023-09-19T05:40:27;100277.78;;;15.54;95.06
18765;BME280;9511;54.242;12.448;2023-09-19T05:42:54;100272.44;;;15.57;94.67
18765;BME280;9511;54.242;12.448;2023-09-19T05:45:21;100272.44;;;15.60;94.42
18765;BME280;9511;54.242;12.448;2023-09-19T05:47:49;100283.09;;;15.60;94.54
18765;BME280;9511;54.242;12.448;2023-09-19T05:50:17;100278.66;;;15.64;94.26
18765;BME280;9511;54.242;12.448;2023-09-19T05:52:51;100288.44;;;15.63;94.33
18765;BME280;9511;54.242;12.448;2023-09-19T05:55:20;100302.63;;;15.59;94.18
18765;BME280;9511;54.242;12.448;2023-09-19T05:57:50;100303.53;;;15.60;94.23
18765;BME280;9511;54.242;12.448;2023-09-19T06:00:18;100310.66;;;15.72;93.91
18765;BME280;9511;54.242;12.448;2023-09-19T06:02:50;100309.72;;;15.85;93.18
18765;BME280;9511;54.242;12.448;2023-09-19T06:05:18;100314.19;;;15.80;91.98
18765;BME280;9511;54.242;12.448;2023-09-19T06:07:46;100307.94;;;15.81;91.91
18765;BME280;9511;54.242;12.448;2023-09-19T06:10:13;100311.50;;;15.80;91.00
18765;BME280;9511;54.242;12.448;2023-09-19T06:12:42;100324.84;;;15.78;91.19
18765;BME280;9511;54.242;12.448;2023-09-19T06:15:11;100324.84;;;15.75;90.64
18765;BME280;9511;54.242;12.448;2023-09-19T06:17:41;100332.84;;;15.74;90.87
18765;BME280;9511;54.242;12.448;2023-09-19T06:20:09;100329.31;;;15.78;90.68
18765;BME280;9511;54.242;12.448;2023-09-19T06:22:40;100333.72;;;15.85;90.11
18765;BME280;9511;54.242;12.448;2023-09-19T06:25:09;100343.50;;;15.83;89.57
18765;BME280;9511;54.242;12.448;2023-09-19T06:27:38;100341.69;;;15.91;89.30
18765;BME280;9511;54.242;12.448;2023-09-19T06:30:10;100341.69;;;15.91;88.85
18765;BME280;9511;54.242;12.448;2023-09-19T06:32:38;100337.22;;;15.98;88.26
18765;BME280;9511;54.242;12.448;2023-09-19T06:35:06;100347.91;;;15.98;88.44
18765;BME280;9511;54.242;12.448;2023-09-19T06:37:34;100340.78;;;16.01;87.60
18765;BME280;9511;54.242;12.448;2023-09-19T06:40:06;100347.91;;;16.01;87.10
18765;BME280;9511;54.242;12.448;2023-09-19T06:42:34;100349.66;;;16.03;87.14
18765;BME280;9511;54.242;12.448;2023-09-19T06:45:04;100344.31;;;16.03;87.02
18765;BME280;9511;54.242;12.448;2023-09-19T06:47:33;100339.84;;;16.05;87.19
18765;BME280;9511;54.242;12.448;2023-09-19T06:50:01;100331.00;;;16.02;87.12
18765;BME280;9511;54.242;12.448;2023-09-19T06:52:30;100356.78;;;15.97;87.24
18765;BME280;9511;54.242;12.448;2023-09-19T06:54:58;100352.31;;;16.06;86.60
18765;BME280;9511;54.242;12.448;2023-09-19T06:57:25;100364.72;;;16.16;86.46
18765;BME280;9511;54.242;12.448;2023-09-19T06:59:52;100367.41;;;16.12;86.02
18765;BME280;9511;54.242;12.448;2023-09-19T07:02:20;100371.88;;;16.05;85.59
18765;BME280;9511;54.242;12.448;2023-09-19T07:04:49;100378.13;;;16.03;85.19
18765;BME280;9511;54.242;12.448;2023-09-19T07:07:16;100384.38;;;15.92;84.57
18765;BME280;9511;54.242;12.448;2023-09-19T07:09:43;100389.72;;;15.96;83.31
18765;BME280;9511;54.242;12.448;2023-09-19T07:12:11;100398.53;;;16.13;83.38
18765;BME280;9511;54.242;12.448;2023-09-19T07:14:39;100394.09;;;16.18;82.30
18765;BME280;9511;54.242;12.448;2023-09-19T07:17:06;100410.09;;;16.19;81.44
18765;BME280;9511;54.242;12.448;2023-09-19T07:19:33;100402.97;;;16.20;80.47
18765;BME280;9511;54.242;12.448;2023-09-19T07:22:02;100414.53;;;16.20;80.15
18765;BME280;9511;54.242;12.448;2023-09-19T07:24:29;100402.94;;;16.25;79.66
18765;BME280;9511;54.242;12.448;2023-09-19T07:26:57;100407.38;;;16.32;78.65
18765;BME280;9511;54.242;12.448;2023-09-19T07:29:24;100396.66;;;16.36;78.16
18765;BME280;9511;54.242;12.448;2023-09-19T07:31:52;100398.44;;;16.34;77.50
18765;BME280;9511;54.242;12.448;2023-09-19T07:34:19;100397.56;;;16.34;77.11
18765;BME280;9511;54.242;12.448;2023-09-19T07:36:49;100409.09;;;16.42;76.01
18765;BME280;9511;54.242;12.448;2023-09-19T07:39:17;100403.75;;;16.39;75.23
18765;BME280;9511;54.242;12.448;2023-09-19T07:41:45;100425.19;;;16.30;74.90
18765;BME280;9511;54.242;12.448;2023-09-19T07:44:12;100410.97;;;16.25;74.71
18765;BME280;9511;54.242;12.448;2023-09-19T07:46:40;100403.84;;;16.24;74.19
18765;BME280;9511;54.242;12.448;2023-09-19T07:49:08;100407.41;;;16.21;73.69
18765;BME280;9511;54.242;12.448;2023-09-19T07:51:36;100414.53;;;16.24;73.75
18765;BME280;9511;54.242;12.448;2023-09-19T07:54:04;100411.84;;;16.22;73.28
18765;BME280;9511;54.242;12.448;2023-09-19T07:56:33;100407.44;;;16.18;72.40
18765;BME280;9511;54.242;12.448;2023-09-19T07:59:00;100422.53;;;16.24;71.23
18765;BME280;9511;54.242;12.448;2023-09-19T08:01:31;100423.41;;;16.29;70.81
18765;BME280;9511;54.242;12.448;2023-09-19T08:03:59;100412.69;;;16.41;71.23
18765;BME280;9511;54.242;12.448;2023-09-19T08:06:26;100417.94;;;16.56;71.06
18765;BME280;9511;54.242;12.448;2023-09-19T08:08:56;100416.16;;;16.55;70.58
18765;BME280;9511;54.242;12.448;2023-09-19T08:11:24;100424.13;;;16.69;68.95
18765;BME280;9511;54.242;12.448;2023-09-19T08:13:53;100446.38;;;16.66;68.43
18765;BME280;9511;54.242;12.448;2023-09-19T08:16:20;100419.66;;;16.66;67.12
18765;BME280;9511;54.242;12.448;2023-09-19T08:18:50;100420.47;;;16.85;67.17
18765;BME280;9511;54.242;12.448;2023-09-19T08:21:21;100417.81;;;16.84;67.46
18765;BME280;9511;54.242;12.448;2023-09-19T08:23:50;100422.19;;;16.97;67.15
18765;BME280;9511;54.242;12.448;2023-09-19T08:26:17;100438.19;;;17.02;67.01
18765;BME280;9511;54.242;12.448;2023-09-19T08:28:48;100430.16;;;17.03;66.96
18765;BME280;9511;54.242;12.448;2023-09-19T08:31:18;100423.06;;;16.99;66.91
18765;BME280;9511;54.242;12.448;2023-09-19T08:33:46;100431.22;;;16.76;66.81
18765;BME280;9511;54.242;12.448;2023-09-19T08:36:18;100429.47;;;16.64;66.67
18765;BME280;9511;54.242;12.448;2023-09-19T08:38:45;100424.00;;;16.90;66.59
18765;BME280;9511;54.242;12.448;2023-09-19T08:41:13;100424.84;;;17.00;66.41
18765;BME280;9511;54.242;12.448;2023-09-19T08:43:40;100433.69;;;17.07;66.23
18765;BME280;9511;54.242;12.448;2023-09-19T08:46:10;100439.94;;;17.10;66.62
18765;BME280;9511;54.242;12.448;2023-09-19T08:48:46;100455.84;;;17.27;66.43
18765;BME280;9511;54.242;12.448;2023-09-19T08:51:18;100433.63;;;17.19;66.02
18765;BME280;9511;54.242;12.448;2023-09-19T08:53:57;100431.72;;;17.32;66.25
18765;BME280;9511;54.242;12.448;2023-09-19T08:56:26;100433.63;;;17.20;66.02
18765;BME280;9511;54.242;12.448;2023-09-19T08:58:57;100435.47;;;17.11;65.14
18765;BME280;9511;54.242;12.448;2023-09-19T09:01:27;100439.03;;;17.08;65.30
18765;BME280;9511;54.242;12.448;2023-09-19T09:03:56;100435.44;;;17.15;65.35
18765;BME280;9511;54.242;12.448;2023-09-19T09:06:25;100442.53;;;17.19;65.50
18765;BME280;9511;54.242;12.448;2023-09-19T09:08:54;100440.75;;;17.18;65.32
18765;BME280;9511;54.242;12.448;2023-09-19T09:11:24;100439.78;;;17.25;65.58
18765;BME280;9511;54.242;12.448;2023-09-19T09:13:54;100455.88;;;17.22;65.87
18765;BME280;9511;54.242;12.448;2023-09-19T09:16:24;100467.38;;;17.34;65.41
18765;BME280;9511;54.242;12.448;2023-09-19T09:18:52;100471.06;;;17.20;65.93
18765;BME280;9511;54.242;12.448;2023-09-19T09:21:22;100448.75;;;17.21;65.58
18765;BME280;9511;54.242;12.448;2023-09-19T09:23:51;100459.38;;;17.29;65.94
18765;BME280;9511;54.242;12.448;2023-09-19T09:26:40;100454.00;;;17.34;65.38
18765;BME280;9511;54.242;12.448;2023-09-19T09:29:11;100453.91;;;17.43;65.70
18765;BME280;9511;54.242;12.448;2023-09-19T09:31:38;100459.31;;;17.37;65.90
18765;BME280;9511;54.242;12.448;2023-09-19T09:34:08;100455.75;;;17.39;66.02
18765;BME280;9511;54.242;12.448;2023-09-19T09:36:41;100455.63;;;17.53;65.75
18765;BME280;9511;54.242;12.448;2023-09-19T09:39:08;100459.22;;;17.50;64.57
18765;BME280;9511;54.242;12.448;2023-09-19T09:41:44;100462.03;;;17.31;64.29
18765;BME280;9511;54.242;12.448;2023-09-19T09:44:13;100456.53;;;17.49;65.23
18765;BME280;9511;54.242;12.448;2023-09-19T09:46:44;100457.34;;;17.63;65.02
18765;BME280;9511;54.242;12.448;2023-09-19T09:49:47;100465.34;;;17.63;64.95
18765;BME280;9511;54.242;12.448;2023-09-19T09:52:21;100457.47;;;17.49;65.21
18765;BME280;9511;54.242;12.448;2023-09-19T09:55:00;100454.72;;;17.54;64.23
18765;BME280;9511;54.242;12.448;2023-09-19T09:57:33;100457.47;;;17.46;63.74
18765;BME280;9511;54.242;12.448;2023-09-19T10:00:04;100469.00;;;17.56;64.08
18765;BME280;9511;54.242;12.448;2023-09-19T10:02:46;100458.09;;;17.82;64.43
18765;BME280;9511;54.242;12.448;2023-09-19T10:05:14;100457.25;;;17.75;63.45
18765;BME280;9511;54.242;12.448;2023-09-19T10:07:48;100457.13;;;17.91;63.63
18765;BME280;9511;54.242;12.448;2023-09-19T10:10:30;100457.84;;;18.05;63.14
18765;BME280;9511;54.242;12.448;2023-09-19T10:13:06;100464.91;;;18.15;63.34
18765;BME280;9511;54.242;12.448;2023-09-19T10:15:37;100471.28;;;18.00;61.62
18765;BME280;9511;54.242;12.448;2023-09-19T10:18:07;100476.88;;;17.76;62.30
18765;BME280;9511;54.242;12.448;2023-09-19T10:20:44;100484.84;;;17.84;63.33
18765;BME280;9511;54.242;12.448;2023-09-19T10:23:14;100478.59;;;17.85;63.51
18765;BME280;9511;54.242;12.448;2023-09-19T10:25:49;100497.44;;;17.72;63.26
18765;BME280;9511;54.242;12.448;2023-09-19T10:28:17;100486.84;;;17.56;63.56
18765;BME280;9511;54.242;12.448;2023-09-19T10:30:48;100498.34;;;17.67;64.56
18765;BME280;9511;54.242;12.448;2023-09-19T10:33:18;100495.72;;;17.55;64.14
18765;BME280;9511;54.242;12.448;2023-09-19T10:35:48;100492.22;;;17.51;63.81
18765;BME280;9511;54.242;12.448;2023-09-19T10:38:23;100499.47;;;17.34;64.18
18765;BME280;9511;54.242;12.448;2023-09-19T10:40:55;100494.91;;;17.46;64.73
18765;BME280;9511;54.242;12.448;2023-09-19T10:43:29;100486.81;;;17.57;64.54
18765;BME280;9511;54.242;12.448;2023-09-19T10:46:01;100484.03;;;17.69;64.40
18765;BME280;9511;54.242;12.448;2023-09-19T10:48:29;100504.72;;;17.46;62.51
18765;BME280;9511;54.242;12.448;2023-09-19T10:51:03;100477.09;;;17.45;62.59
18765;BME280;9511;54.242;12.448;2023-09-19T10:53:42;100500.41;;;17.27;62.16
18765;BME280;9511;54.242;12.448;2023-09-19T10:56:10;100486.06;;;17.38;62.25
18765;BME280;9511;54.242;12.448;2023-09-19T10:58:43;100481.56;;;17.42;62.07
18765;BME280;9511;54.242;12.448;2023-09-19T11:01:12;100490.50;;;17.41;62.26
18765;BME280;9511;54.242;12.448;2023-09-19T11:03:41;100503.78;;;17.51;62.06
18765;BME280;9511;54.242;12.448;2023-09-19T11:06:11;100496.66;;;17.52;62.33
18765;BME280;9511;54.242;12.448;2023-09-19T11:09:03;100499.28;;;17.58;62.29
18765;BME280;9511;54.242;12.448;2023-09-19T11:11:43;100492.16;;;17.54;63.07
18765;BME280;9511;54.242;12.448;2023-09-19T11:14:28;100503.75;;;17.55;63.34
18765;BME280;9511;54.242;12.448;2023-09-19T11:20:24;100509.03;;;17.64;62.99
18765;BME280;9511;54.242;12.448;2023-09-19T11:23:20;100508.25;;;17.52;62.82
18765;BME280;9511;54.242;12.448;2023-09-19T11:25:54;100509.97;;;17.58;63.20
18765;BME280;9511;54.242;12.448;2023-09-19T11:28:32;100513.47;;;17.68;62.92
18765;BME280;9511;54.242;12.448;2023-09-19T11:31:42;100513.56;;;17.54;61.96
18765;BME280;9511;54.242;12.448;2023-09-19T11:34:44;100506.28;;;17.81;62.05
18765;BME280;9511;54.242;12.448;2023-09-19T11:40:37;100491.66;;;18.15;61.69
18765;BME280;9511;54.242;12.448;2023-09-19T11:43:30;100494.31;;;18.17;61.37
18765;BME280;9511;54.242;12.448;2023-09-19T11:46:06;100506.63;;;18.35;60.63
18765;BME280;9511;54.242;12.448;2023-09-19T11:48:38;100496.88;;;18.30;59.58
18765;BME280;9511;54.242;12.448;2023-09-19T11:51:17;100480.81;;;18.30;59.47
18765;BME280;9511;54.242;12.448;2023-09-19T11:53:55;100503.69;;;18.59;59.44
18765;BME280;9511;54.242;12.448;2023-09-19T11:56:26;100501.09;;;18.51;58.45
18765;BME280;9511;54.242;12.448;2023-09-19T11:58:57;100498.16;;;18.74;58.23
18765;BME280;9511;54.242;12.448;2023-09-19T12:01:30;100499.16;;;18.63;57.65
18765;BME280;9511;54.242;12.448;2023-09-19T12:04:00;100494.53;;;18.78;57.54
18765;BME280;9511;54.242;12.448;2023-09-19T12:06:29;100486.25;;;18.97;57.17
18765;BME280;9511;54.242;12.448;2023-09-19T12:08:58;100502.34;;;18.98;56.56
18765;BME280;9511;54.242;12.448;2023-09-19T12:11:29;100487.41;;;18.77;56.14
18765;BME280;9511;54.242;12.448;2023-09-19T12:13:59;100494.94;;;19.14;55.04
18765;BME280;9511;54.242;12.448;2023-09-19T12:16:28;100496.91;;;19.04;55.23
18765;BME280;9511;54.242;12.448;2023-09-19T12:18:57;100489.91;;;18.91;54.99
18765;BME280;9511;54.242;12.448;2023-09-19T12:21:27;100506.19;;;18.74;54.98
18765;BME280;9511;54.242;12.448;2023-09-19T12:24:07;100489.91;;;18.91;55.36
18765;BME280;9511;54.242;12.448;2023-09-19T12:26:40;100487.34;;;18.80;55.18
18765;BME280;9511;54.242;12.448;2023-09-19T12:29:13;100498.25;;;18.65;54.81
18765;BME280;9511;54.242;12.448;2023-09-19T12:31:48;100493.75;;;18.69;54.58
18765;BME280;9511;54.242;12.448;2023-09-19T12:34:20;100492.59;;;18.91;54.35
18765;BME280;9511;54.242;12.448;2023-09-19T12:37:03;100492.50;;;18.99;54.52
18765;BME280;9511;54.242;12.448;2023-09-19T12:39:31;100494.59;;;18.75;54.08
18765;BME280;9511;54.242;12.448;2023-09-19T12:41:59;100483.53;;;19.00;54.49
18765;BME280;9511;54.242;12.448;2023-09-19T12:44:30;100498.69;;;19.04;54.27
18765;BME280;9511;54.242;12.448;2023-09-19T12:46:59;100495.31;;;18.88;53.80
18765;BME280;9511;54.242;12.448;2023-09-19T12:49:27;100500.53;;;18.99;54.25
18765;BME280;9511;54.242;12.448;2023-09-19T12:51:56;100493.53;;;18.89;54.28
18765;BME280;9511;54.242;12.448;2023-09-19T12:54:37;100504.41;;;18.76;54.70
18765;BME280;9511;54.242;12.448;2023-09-19T12:57:04;100490.13;;;18.76;55.31
18765;BME280;9511;54.242;12.448;2023-09-19T12:59:32;100500.84;;;18.76;55.59
18765;BME280;9511;54.242;12.448;2023-09-19T13:02:04;100496.22;;;18.89;56.14
18765;BME280;9511;54.242;12.448;2023-09-19T13:04:33;100488.19;;;18.86;55.44
18765;BME280;9511;54.242;12.448;2023-09-19T13:07:41;100489.28;;;18.69;55.01
18765;BME280;9511;54.242;12.448;2023-09-19T13:10:11;100492.63;;;18.90;54.79
18765;BME280;9511;54.242;12.448;2023-09-19T13:12:43;100484.44;;;19.00;55.00
18765;BME280;9511;54.242;12.448;2023-09-19T13:15:15;100476.41;;;18.99;54.97
18765;BME280;9511;54.242;12.448;2023-09-19T13:17:47;100478.47;;;18.78;55.25
18765;BME280;9511;54.242;12.448;2023-09-19T13:20:22;100488.16;;;18.89;55.80
18765;BME280;9511;54.242;12.448;2023-09-19T13:22:56;100483.16;;;18.58;56.25
18765;BME280;9511;54.242;12.448;2023-09-19T13:25:27;100497.47;;;18.55;56.32
18765;BME280;9511;54.242;12.448;2023-09-19T13:27:57;100487.53;;;18.65;57.50
18765;BME280;9511;54.242;12.448;2023-09-19T13:30:27;100488.41;;;18.69;57.27
18765;BME280;9511;54.242;12.448;2023-09-19T13:33:04;100482.13;;;18.71;56.96
18765;BME280;9511;54.242;12.448;2023-09-19T13:35:32;100490.22;;;18.65;57.80
18765;BME280;9511;54.242;12.448;2023-09-19T13:38:01;100479.56;;;18.57;57.94
18765;BME280;9511;54.242;12.448;2023-09-19T13:40:28;100475.03;;;18.67;58.00
18765;BME280;9511;54.242;12.448;2023-09-19T13:42:57;100485.84;;;18.58;57.73
18765;BME280;9511;54.242;12.448;2023-09-19T13:45:24;100483.94;;;18.66;57.33
18765;BME280;9511;54.242;12.448;2023-09-19T13:47:53;100485.88;;;18.55;57.75
18765;BME280;9511;54.242;12.448;2023-09-19T13:50:21;100501.72;;;18.76;57.36
18765;BME280;9511;54.242;12.448;2023-09-19T13:52:50;100484.88;;;18.65;57.48
18765;BME280;9511;54.242;12.448;2023-09-19T13:55:20;100472.19;;;18.81;57.33
18765;BME280;9511;54.242;12.448;2023-09-19T13:57:48;100481.03;;;18.86;57.26
18765;BME280;9511;54.242;12.448;2023-09-19T14:00:16;100472.22;;;18.78;57.41
18765;BME280;9511;54.242;12.448;2023-09-19T14:02:44;100473.94;;;18.83;57.62
18765;BME280;9511;54.242;12.448;2023-09-19T14:05:12;100487.56;;;18.62;57.52
18765;BME280;9511;54.242;12.448;2023-09-19T14:07:41;100477.75;;;18.61;57.45
18765;BME280;9511;54.242;12.448;2023-09-19T14:10:10;100484.00;;;18.62;57.02
18765;BME280;9511;54.242;12.448;2023-09-19T14:12:39;100485.78;;;18.63;57.08
18765;BME280;9511;54.242;12.448;2023-09-19T14:15:08;100476.69;;;18.77;56.72
18765;BME280;9511;54.242;12.448;2023-09-19T14:17:37;100482.19;;;18.62;56.66
18765;BME280;9511;54.242;12.448;2023-09-19T14:20:05;100468.84;;;18.57;57.18
18765;BME280;9511;54.242;12.448;2023-09-19T14:22:33;100460.63;;;18.77;57.84
18765;BME280;9511;54.242;12.448;2023-09-19T14:25:01;100463.25;;;18.82;57.52
18765;BME280;9511;54.242;12.448;2023-09-19T14:27:28;100459.69;;;18.78;57.10
18765;BME280;9511;54.242;12.448;2023-09-19T14:29:57;100481.19;;;18.75;56.46
18765;BME280;9511;54.242;12.448;2023-09-19T14:32:24;100472.31;;;18.72;56.89
18765;BME280;9511;54.242;12.448;2023-09-19T14:34:52;100469.69;;;18.67;56.28
18765;BME280;9511;54.242;12.448;2023-09-19T14:37:19;100455.28;;;18.76;56.77
18765;BME280;9511;54.242;12.448;2023-09-19T14:39:47;100472.94;;;18.91;56.37
18765;BME280;9511;54.242;12.448;2023-09-19T14:42:14;100457.00;;;18.81;55.95
18765;BME280;9511;54.242;12.448;2023-09-19T14:44:43;100479.47;;;18.71;55.75
18765;BME280;9511;54.242;12.448;2023-09-19T14:47:12;100467.59;;;18.89;55.91
18765;BME280;9511;54.242;12.448;2023-09-19T14:49:39;100464.06;;;18.87;56.16
18765;BME280;9511;54.242;12.448;2023-09-19T14:52:07;100465.59;;;19.05;55.49
18765;BME280;9511;54.242;12.448;2023-09-19T14:54:35;100486.91;;;19.16;54.92
18765;BME280;9511;54.242;12.448;2023-09-19T14:57:04;100463.03;;;19.56;54.26
18765;BME280;9511;54.242;12.448;2023-09-19T14:59:31;100456.50;;;19.74;53.32
18765;BME280;9511;54.242;12.448;2023-09-19T15:01:59;100452.53;;;20.42;52.46
18765;BME280;9511;54.242;12.448;2023-09-19T15:04:28;100438.38;;;20.78;51.60
18765;BME280;9511;54.242;12.448;2023-09-19T15:06:55;100452.81;;;21.12;51.12
18765;BME280;9511;54.242;12.448;2023-09-19T15:09:23;100459.47;;;21.72;49.88
18765;BME280;9511;54.242;12.448;2023-09-19T15:11:52;100454.53;;;21.15;49.92
18765;BME280;9511;54.242;12.448;2023-09-19T15:14:19;100447.03;;;20.90;50.26
18765;BME280;9511;54.242;12.448;2023-09-19T15:16:47;100450.78;;;20.83;50.29
18765;BME280;9511;54.242;12.448;2023-09-19T15:19:14;100454.66;;;20.24;51.40
18765;BME280;9511;54.242;12.448;2023-09-19T15:21:44;100459.00;;;20.32;51.33
18765;BME280;9511;54.242;12.448;2023-09-19T15:24:12;100437.22;;;20.48;50.72
18765;BME280;9511;54.242;12.448;2023-09-19T15:26:39;100443.53;;;20.43;50.48
18765;BME280;9511;54.242;12.448;2023-09-19T15:29:07;100436.47;;;20.83;50.77
18765;BME280;9511;54.242;12.448;2023-09-19T15:31:35;100444.47;;;21.25;50.15
18765;BME280;9511;54.242;12.448;2023-09-19T15:34:02;100438.09;;;21.27;49.12
18765;BME280;9511;54.242;12.448;2023-09-19T15:36:31;100434.25;;;21.40;48.61
18765;BME280;9511;54.242;12.448;2023-09-19T15:39:01;100428.41;;;20.81;49.05
18765;BME280;9511;54.242;12.448;2023-09-19T15:41:31;100408.19;;;20.65;50.11
18765;BME280;9511;54.242;12.448;2023-09-19T15:43:59;100412.38;;;20.78;50.30
18765;BME280;9511;54.242;12.448;2023-09-19T15:46:28;100408.03;;;20.28;50.76
18765;BME280;9511;54.242;12.448;2023-09-19T15:48:56;100413.13;;;19.95;51.97
18765;BME280;9511;54.242;12.448;2023-09-19T15:51:24;100404.25;;;19.41;52.45
18765;BME280;9511;54.242;12.448;2023-09-19T15:53:54;100422.13;;;19.42;53.14
18765;BME280;9511;54.242;12.448;2023-09-19T15:56:23;100423.09;;;19.36;53.55
18765;BME280;9511;54.242;12.448;2023-09-19T15:58:54;100423.00;;;18.83;54.61
18765;BME280;9511;54.242;12.448;2023-09-19T16:01:22;100428.75;;;18.53;55.90
18765;BME280;9511;54.242;12.448;2023-09-19T16:03:51;100422.69;;;18.39;56.28
18765;BME280;9511;54.242;12.448;2023-09-19T16:06:20;100420.06;;;18.36;56.86
18765;BME280;9511;54.242;12.448;2023-09-19T16:08:50;100422.91;;;18.17;57.48
18765;BME280;9511;54.242;12.448;2023-09-19T16:11:19;100436.44;;;18.05;57.90
18765;BME280;9511;54.242;12.448;2023-09-19T16:13:49;100446.38;;;17.95;58.85
18765;BME280;9511;54.242;12.448;2023-09-19T16:16:17;100435.78;;;17.82;58.86